Time;durP1;ratioP1;P1;durP2;ratioP2;P2;SDS_P1;SDS_P2;PMS_P1;PMS_P2;Temp;Humidity;BMP_temperature;BMP_pressure;BME280_temperature;BME280_humidity;BME280_pressure;Samples;Min_cycle;Max_cycle;Signal;HPM_P1;HPM_P2
2023/03/10 00:01:55;;;;;;;11.85;4.32;;;;;;;9.54;57.43;94793.97;5018227;28;20054;-83
2023/03/10 00:04:24;;;;;;;7.13;3.10;;;;;;;9.46;57.22;94800.28;5017883;28;20069;-84
2023/03/10 00:06:52;;;;;;;9.10;2.90;;;;;;;9.42;57.37;94799.16;5018306;28;20134;-83
2023/03/10 00:09:23;;;;;;;8.68;2.85;;;;;;;9.37;56.79;94800.78;5017593;28;20038;-83
2023/03/10 00:11:51;;;;;;;6.43;2.97;;;;;;;9.34;56.97;94812.44;5017993;28;20054;-83
2023/03/10 00:14:21;;;;;;;8.50;3.22;;;;;;;9.32;56.60;94803.28;5018113;28;20038;-82
2023/03/10 00:16:49;;;;;;;8.18;4.28;;;;;;;9.29;56.71;94794.06;5017599;28;20051;-82
2023/03/10 00:19:18;;;;;;;7.35;2.40;;;;;;;9.22;56.61;94788.16;5017614;28;20050;-83
2023/03/10 00:21:46;;;;;;;7.97;3.63;;;;;;;9.19;56.64;94796.41;5017392;28;20049;-83
2023/03/10 00:24:14;;;;;;;8.55;2.53;;;;;;;9.16;56.63;94783.81;5017780;28;20054;-83
2023/03/10 00:26:44;;;;;;;7.00;3.17;;;;;;;9.14;56.53;94778.03;5017320;28;20093;-83
2023/03/10 00:29:13;;;;;;;4.28;1.90;;;;;;;9.11;57.29;94770.66;5018085;28;20552;-83
2023/03/10 00:31:44;;;;;;;5.82;2.42;;;;;;;9.10;57.41;94779.50;5017174;28;20037;-83
2023/03/10 00:34:12;;;;;;;8.23;2.90;;;;;;;9.08;57.07;94766.69;5016055;28;20046;-83
2023/03/10 00:36:41;;;;;;;5.47;2.53;;;;;;;9.10;59.80;94763.91;5009950;28;20061;-82
2023/03/10 00:39:11;;;;;;;6.60;2.15;;;;;;;9.10;57.83;94769.88;5013069;28;20125;-83
2023/03/10 00:41:39;;;;;;;5.72;2.38;;;;;;;9.08;58.80;94762.28;5015608;28;20042;-83
2023/03/10 00:44:09;;;;;;;6.13;2.58;;;;;;;9.08;57.68;94766.69;5016780;28;20030;-82
2023/03/10 00:46:38;;;;;;;5.72;1.83;;;;;;;9.06;57.46;94753.13;5016406;28;20058;-83
2023/03/10 00:49:08;;;;;;;4.93;1.88;;;;;;;9.04;57.32;94750.72;5015989;28;20078;-82
2023/03/10 00:51:36;;;;;;;4.38;2.08;;;;;;;9.05;57.24;94754.94;5016432;28;20057;-83
2023/03/10 00:54:05;;;;;;;4.38;1.63;;;;;;;9.07;57.50;94750.31;5016895;28;20057;-82
2023/03/10 00:56:33;;;;;;;2.85;1.23;;;;;;;9.08;57.29;94744.09;5016097;28;20058;-83
2023/03/10 00:59:02;;;;;;;4.90;1.30;;;;;;;9.10;57.16;94732.69;5016843;28;20086;-82
2023/03/10 01:01:32;;;;;;;3.90;1.42;;;;;;;9.10;57.07;94724.88;5016636;28;20069;-83
2023/03/10 01:04:02;;;;;;;4.35;1.42;;;;;;;9.08;57.02;94720.69;5016914;28;20111;-83
2023/03/10 01:06:32;;;;;;;5.40;1.45;;;;;;;9.08;57.02;94709.47;5017424;28;20053;-82
2023/03/10 01:09:01;;;;;;;3.00;1.48;;;;;;;9.08;57.02;94699.88;5019067;28;20040;-81
2023/03/10 01:11:31;;;;;;;3.50;1.35;;;;;;;9.08;57.04;94699.88;5019150;28;20035;-82
2023/03/10 01:14:01;;;;;;;3.03;0.95;;;;;;;9.11;57.09;94705.66;5018803;28;20046;-82
2023/03/10 01:16:30;;;;;;;5.50;1.80;;;;;;;9.11;57.39;94698.63;5019332;28;20039;-82
2023/03/10 01:18:59;;;;;;;4.90;2.05;;;;;;;9.12;57.14;94689.00;5018335;28;20093;-82
2023/03/10 01:21:30;;;;;;;3.15;1.52;;;;;;;9.12;57.12;94678.59;5017722;28;20042;-83
2023/03/10 01:23:59;;;;;;;4.50;1.70;;;;;;;9.12;57.13;94670.81;5014795;28;20057;-83
2023/03/10 01:26:28;;;;;;;4.45;2.13;;;;;;;9.08;57.25;94671.25;5015174;28;20121;-82
2023/03/10 01:28:57;;;;;;;5.65;2.03;;;;;;;9.03;57.48;94655.53;5014455;28;20035;-82
2023/03/10 01:31:25;;;;;;;4.30;1.90;;;;;;;9.00;57.39;94650.75;5014075;28;20060;-82
2023/03/10 01:33:53;;;;;;;6.03;2.10;;;;;;;8.95;57.35;94648.03;5012242;28;20043;-84
2023/03/10 01:36:26;;;;;;;3.88;1.80;;;;;;;8.91;57.65;94633.88;5014587;28;20046;-83
2023/03/10 01:38:57;;;;;;;6.20;2.03;;;;;;;8.87;57.50;94632.72;5013463;28;20058;-83
2023/03/10 01:41:28;;;;;;;6.30;2.33;;;;;;;8.84;57.71;94620.94;5014152;28;20069;-83
2023/03/10 01:43:58;;;;;;;4.30;1.80;;;;;;;8.82;57.73;94622.19;5013887;28;20118;-83
2023/03/10 01:46:45;;;;;;;4.97;2.40;;;;;;;8.80;57.81;94609.41;5014024;28;20065;-83
2023/03/10 01:49:33;;;;;;;6.78;1.80;;;;;;;8.78;58.00;94608.81;5014476;28;20035;-79
2023/03/10 01:52:05;;;;;;;7.57;2.08;;;;;;;8.77;58.42;94603.84;5018342;28;20042;-80
2023/03/10 01:54:40;;;;;;;5.50;2.13;;;;;;;8.77;58.33;94601.25;5018077;28;20034;-82
2023/03/10 01:57:11;;;;;;;4.53;2.00;;;;;;;8.77;60.00;94594.25;5014309;28;20311;-83
2023/03/10 01:59:40;;;;;;;5.05;2.20;;;;;;;8.77;59.12;94601.25;5015526;28;20058;-83
2023/03/10 02:02:10;;;;;;;4.53;2.38;;;;;;;8.76;58.87;94591.84;5018534;28;20053;-83
2023/03/10 02:04:43;;;;;;;5.78;2.20;;;;;;;8.73;58.84;94587.13;5018304;28;20493;-83
2023/03/10 02:07:14;;;;;;;7.07;2.60;;;;;;;8.68;58.88;94569.56;5019029;28;20064;-83
2023/03/10 02:09:44;;;;;;;4.55;2.00;;;;;;;8.66;58.99;94574.97;5018978;28;20050;-82
2023/03/10 02:12:15;;;;;;;4.40;2.10;;;;;;;8.68;61.15;94573.97;5019014;28;20045;-83
2023/03/10 02:14:44;;;;;;;2.50;1.80;;;;;;;8.69;59.60;94567.75;5018991;28;20447;-83
2023/03/10 02:17:17;;;;;;;3.80;1.67;;;;;;;8.65;59.56;94568.19;5018429;28;20073;-82
2023/03/10 02:19:59;;;;;;;5.47;2.13;;;;;;;8.63;59.37;94577.22;5018158;28;20049;-82
2023/03/10 02:22:27;;;;;;;4.83;2.00;;;;;;;8.63;59.63;94574.63;5017846;28;20046;-82
2023/03/10 02:25:03;;;;;;;5.15;2.10;;;;;;;8.65;60.54;94570.78;5018086;28;20081;-83
2023/03/10 02:27:36;;;;;;;4.93;1.98;;;;;;;8.71;60.70;94573.53;5017713;28;20038;-82
2023/03/10 02:30:09;;;;;;;4.32;1.35;;;;;;;8.79;61.13;94581.00;5018080;28;20066;-82
2023/03/10 02:32:41;;;;;;;5.10;1.35;;;;;;;8.90;62.57;94589.88;5018365;28;20050;-82
2023/03/10 02:35:11;;;;;;;3.17;1.10;;;;;;;8.99;62.44;94576.34;5017987;28;20081;-82
2023/03/10 02:37:39;;;;;;;2.60;1.05;;;;;;;9.06;62.08;94590.06;5017845;28;20051;-82
2023/03/10 02:40:28;;;;;;;5.00;1.27;;;;;;;9.18;64.09;94590.09;5017967;28;20038;-82
2023/03/10 02:42:59;;;;;;;3.28;0.80;;;;;;;9.24;63.44;94578.00;5018415;28;20050;-82
2023/03/10 02:45:29;;;;;;;4.15;1.05;;;;;;;9.33;63.30;94579.25;5018913;28;20109;-83
2023/03/10 02:47:58;;;;;;;1.73;0.60;;;;;;;9.43;62.78;94576.13;5017295;28;20054;-82
2023/03/10 02:50:28;;;;;;;2.33;0.68;;;;;;;9.52;62.99;94584.41;5018489;28;20085;-82
2023/03/10 02:53:03;;;;;;;2.08;0.60;;;;;;;9.58;63.76;94592.09;5018834;28;20054;-82
2023/03/10 02:55:31;;;;;;;2.70;0.75;;;;;;;9.66;62.54;94570.97;5018409;28;20034;-83
2023/03/10 02:58:01;;;;;;;1.90;0.63;;;;;;;9.74;63.41;94584.66;5018014;28;20050;-82
2023/03/10 03:00:29;;;;;;;2.60;0.45;;;;;;;9.78;63.27;94580.59;5017284;28;20042;-83
2023/03/10 03:02:57;;;;;;;1.48;0.40;;;;;;;9.82;63.91;94579.91;5016643;28;20046;-83
2023/03/10 03:05:25;;;;;;;1.75;0.60;;;;;;;9.87;64.38;94587.81;5017912;28;20126;-82
2023/03/10 03:07:53;;;;;;;1.88;0.75;;;;;;;9.91;64.83;94577.75;5018006;28;20062;-82
2023/03/10 03:10:21;;;;;;;1.13;0.57;;;;;;;9.95;64.80;94578.06;5018639;28;20057;-83
2023/03/10 03:12:50;;;;;;;1.98;0.40;;;;;;;9.98;64.98;94578.41;5018441;28;20058;-83
2023/03/10 03:15:19;;;;;;;2.58;0.52;;;;;;;10.02;65.49;94581.38;5018717;28;20085;-83
2023/03/10 03:17:47;;;;;;;3.42;0.85;;;;;;;10.05;65.56;94583.50;5017977;28;20038;-82
2023/03/10 03:20:16;;;;;;;1.67;0.30;;;;;;;10.07;65.41;94586.69;5017708;28;20061;-83
2023/03/10 03:22:45;;;;;;;0.90;0.25;;;;;;;10.09;65.93;94587.25;5018312;28;20027;-83
2023/03/10 03:25:17;;;;;;;0.90;0.43;;;;;;;10.11;66.68;94593.03;5017774;28;20073;-83
2023/03/10 03:27:45;;;;;;;1.08;0.20;;;;;;;10.11;66.44;94590.41;5018066;28;20047;-82
2023/03/10 03:30:15;;;;;;;0.38;0.28;;;;;;;10.11;66.89;94588.59;5018128;28;20050;-82
2023/03/10 03:32:45;;;;;;;0.30;0.10;;;;;;;10.11;66.88;94575.56;5017428;28;20054;-83
2023/03/10 03:35:16;;;;;;;0.63;0.20;;;;;;;10.13;67.92;94575.34;5017816;28;20050;-83
2023/03/10 03:37:45;;;;;;;0.77;0.10;;;;;;;10.15;66.81;94582.94;5017629;28;20034;-82
2023/03/10 03:40:14;;;;;;;0.55;0.25;;;;;;;10.15;68.03;94583.75;5017854;28;20048;-82
2023/03/10 03:42:43;;;;;;;0.88;0.20;;;;;;;10.16;68.02;94577.50;5017192;28;20046;-83
2023/03/10 03:45:12;;;;;;;0.25;0.10;;;;;;;10.17;68.22;94576.50;5018017;28;20093;-82
2023/03/10 03:47:40;;;;;;;0.73;0.22;;;;;;;10.17;67.30;94570.50;5017797;28;20077;-83
2023/03/10 03:50:13;;;;;;;1.48;0.20;;;;;;;10.19;68.04;94568.41;5017140;28;20405;-82
2023/03/10 03:52:41;;;;;;;0.40;0.20;;;;;;;10.19;68.03;94568.41;5017601;28;20038;-82
2023/03/10 03:55:11;;;;;;;0.20;0.20;;;;;;;10.16;67.75;94569.69;5017827;28;20081;-82
2023/03/10 03:57:39;;;;;;;0.10;0.10;;;;;;;10.16;67.57;94566.28;5017432;28;20073;-82
2023/03/10 04:00:12;;;;;;;0.10;0.10;;;;;;;10.14;67.95;94571.72;5016943;28;20038;-82
2023/03/10 04:02:40;;;;;;;0.25;0.00;;;;;;;10.13;67.98;94577.97;5017143;28;20033;-82
2023/03/10 04:05:10;;;;;;;1.55;0.40;;;;;;;10.11;68.44;94575.56;5017245;28;20066;-82
2023/03/10 04:07:39;;;;;;;0.70;0.20;;;;;;;10.12;68.02;94581.56;5016971;28;20046;-83
2023/03/10 04:10:09;;;;;;;1.13;0.28;;;;;;;10.11;69.03;94577.41;5016452;28;20054;-82
2023/03/10 04:12:37;;;;;;;0.63;0.20;;;;;;;10.12;68.29;94568.53;5019941;28;20067;-82
2023/03/10 04:15:07;;;;;;;2.17;0.20;;;;;;;10.11;68.54;94566.97;5020036;28;20034;-82
2023/03/10 04:17:35;;;;;;;0.10;0.10;;;;;;;10.11;68.39;94561.75;5019904;28;20047;-82
2023/03/10 04:20:05;;;;;;;1.17;0.30;;;;;;;10.08;67.70;94557.03;5017849;28;20041;-83
2023/03/10 04:22:37;;;;;;;0.47;0.27;;;;;;;10.04;67.99;94566.31;5015332;28;20133;-82
2023/03/10 04:25:06;;;;;;;0.65;0.15;;;;;;;10.03;68.83;94559.50;5016225;28;20031;-83
2023/03/10 04:27:34;;;;;;;0.20;0.20;;;;;;;10.03;68.42;94562.09;5016474;28;20050;-82
2023/03/10 04:30:03;;;;;;;2.10;0.40;;;;;;;10.01;68.02;94556.31;5016015;28;20042;-82
2023/03/10 04:32:31;;;;;;;0.35;0.35;;;;;;;9.99;68.52;94559.19;5016954;28;20026;-83
2023/03/10 04:34:59;;;;;;;0.30;0.30;;;;;;;9.98;68.39;94556.78;5016180;28;20050;-82
2023/03/10 04:37:27;;;;;;;0.98;0.10;;;;;;;9.95;68.73;94560.66;5015063;28;20053;-82
2023/03/10 04:39:57;;;;;;;0.30;0.20;;;;;;;9.94;69.25;94566.09;5015216;28;20077;-81
2023/03/10 04:42:25;;;;;;;0.55;0.55;;;;;;;9.93;68.67;94559.28;5015716;28;20047;-82
2023/03/10 04:44:53;;;;;;;0.85;0.25;;;;;;;9.92;69.48;94557.69;5017979;28;20034;-82
2023/03/10 04:47:21;;;;;;;1.10;0.15;;;;;;;9.88;69.79;94565.97;5019093;28;20054;-82
2023/03/10 04:49:49;;;;;;;0.60;0.43;;;;;;;9.87;69.92;94556.56;5017871;28;20047;-83
2023/03/10 04:52:17;;;;;;;3.15;0.52;;;;;;;9.86;69.96;94554.19;5017533;28;20069;-82
2023/03/10 04:54:44;;;;;;;1.20;0.20;;;;;;;9.84;70.17;94549.22;5017060;28;20050;-82
2023/03/10 04:57:15;;;;;;;1.15;0.38;;;;;;;9.84;70.79;94556.25;5015297;28;20063;-83
2023/03/10 04:59:43;;;;;;;0.85;0.38;;;;;;;9.82;70.75;94545.25;5014248;28;20054;-82
2023/03/10 05:02:10;;;;;;;2.33;0.43;;;;;;;9.80;70.64;94542.88;5014911;28;20044;-82
2023/03/10 05:04:39;;;;;;;1.02;0.40;;;;;;;9.76;70.86;94538.34;5015585;28;20054;-81
2023/03/10 05:07:07;;;;;;;0.20;0.20;;;;;;;9.76;71.39;94528.72;5014855;28;20046;-83
2023/03/10 05:09:36;;;;;;;1.83;0.73;;;;;;;9.75;70.95;94527.16;5013860;28;20046;-82
2023/03/10 05:12:05;;;;;;;1.65;0.30;;;;;;;9.74;71.11;94528.16;5015025;28;20080;-82
2023/03/10 05:14:34;;;;;;;0.75;0.50;;;;;;;9.71;70.79;94520.81;5014965;28;20113;-82
2023/03/10 05:17:02;;;;;;;1.52;0.52;;;;;;;9.69;70.09;94518.44;5016091;28;20106;-82
2023/03/10 05:19:30;;;;;;;1.13;0.47;;;;;;;9.66;70.40;94521.50;5017450;28;20030;-83
2023/03/10 05:21:58;;;;;;;0.75;0.50;;;;;;;9.63;70.23;94515.94;5015740;28;20107;-83
2023/03/10 05:24:26;;;;;;;1.58;0.32;;;;;;;9.58;70.03;94516.63;5012369;28;20073;-83
2023/03/10 05:26:54;;;;;;;0.50;0.30;;;;;;;9.57;70.66;94511.63;5013473;28;20046;-82
2023/03/10 05:29:22;;;;;;;0.32;0.20;;;;;;;9.56;70.46;94512.66;5013719;28;20054;-82
2023/03/10 05:31:51;;;;;;;1.38;0.30;;;;;;;9.57;70.93;94519.44;5014518;28;20074;-82
2023/03/10 05:34:19;;;;;;;1.85;0.43;;;;;;;9.56;70.83;94513.44;5013589;28;20042;-83
2023/03/10 05:36:47;;;;;;;0.68;0.30;;;;;;;9.58;70.98;94515.84;5014935;22;20146;-82
2023/03/10 05:39:14;;;;;;;2.08;0.22;;;;;;;9.56;70.51;94510.84;4976748;28;20050;-79
2023/03/10 05:41:42;;;;;;;0.82;0.30;;;;;;;9.54;71.49;94512.09;4977650;28;20133;-77
2023/03/10 05:44:09;;;;;;;0.55;0.17;;;;;;;9.52;70.71;94496.69;4977115;28;20050;-79
2023/03/10 05:46:37;;;;;;;1.13;0.38;;;;;;;9.53;70.63;94492.28;4977291;28;20051;-79
2023/03/10 05:49:06;;;;;;;0.60;0.30;;;;;;;9.52;70.83;94465.47;4977075;28;20505;-79
2023/03/10 05:51:33;;;;;;;1.80;0.85;;;;;;;9.50;71.62;94472.72;4977749;28;20051;-82
2023/03/10 05:54:01;;;;;;;0.75;0.50;;;;;;;9.49;71.27;94469.31;4977371;28;20051;-81
2023/03/10 05:56:28;;;;;;;2.65;0.50;;;;;;;9.49;71.39;94471.13;4977652;28;20138;-78
2023/03/10 05:58:56;;;;;;;1.63;0.63;;;;;;;9.49;71.61;94471.13;4977751;28;20051;-78
2023/03/10 06:01:23;;;;;;;1.75;0.63;;;;;;;9.48;72.28;94467.72;4976761;28;20047;-77
2023/03/10 06:03:51;;;;;;;1.50;0.88;;;;;;;9.47;71.19;94476.56;4984997;28;20050;-82
2023/03/10 06:06:20;;;;;;;0.93;0.47;;;;;;;9.44;70.81;94474.41;4983880;28;20501;-82
2023/03/10 06:08:48;;;;;;;0.20;0.20;;;;;;;9.42;70.58;94470.44;4997323;28;20054;-81
2023/03/10 06:11:15;;;;;;;0.63;0.30;;;;;;;9.40;70.63;94472.47;4997940;28;20125;-81
2023/03/10 06:13:43;;;;;;;0.75;0.20;;;;;;;9.40;71.06;94478.50;4991636;28;20108;-81
2023/03/10 06:16:11;;;;;;;1.42;0.40;;;;;;;9.39;70.85;94474.28;4983916;28;20084;-82
2023/03/10 06:18:38;;;;;;;0.65;0.30;;;;;;;9.38;70.44;94475.31;4995362;28;20078;-80
2023/03/10 06:21:07;;;;;;;1.17;0.30;;;;;;;9.36;70.65;94466.94;4991657;28;20043;-82
2023/03/10 06:23:37;;;;;;;1.80;0.45;;;;;;;9.37;71.32;94468.53;4988683;28;20064;-83
2023/03/10 06:26:07;;;;;;;0.80;0.30;;;;;;;9.37;71.38;94465.91;4978902;28;20134;-82
2023/03/10 06:28:36;;;;;;;15.05;8.55;;;;;;;9.39;71.22;94465.69;4993346;28;20050;-80
2023/03/10 06:31:06;;;;;;;2.83;1.92;;;;;;;9.40;70.67;94462.88;4995738;28;20054;-79
2023/03/10 06:33:35;;;;;;;1.27;0.60;;;;;;;9.40;71.06;94457.69;4994754;28;20529;-80
2023/03/10 06:36:03;;;;;;;0.38;0.22;;;;;;;9.41;70.91;94464.44;4982159;28;20057;-78
2023/03/10 06:38:31;;;;;;;1.30;0.57;;;;;;;9.40;71.14;94457.69;4985167;28;20053;-78
2023/03/10 06:40:59;;;;;;;4.50;1.10;;;;;;;9.39;71.95;94463.88;4997753;28;20054;-83
2023/03/10 06:43:27;;;;;;;2.05;0.40;;;;;;;9.38;71.63;94462.31;5000685;28;20111;-85
2023/03/10 06:45:55;;;;;;;0.47;0.35;;;;;;;9.39;72.07;94469.09;4985385;28;20057;-78
2023/03/10 06:48:22;;;;;;;0.57;0.30;;;;;;;9.40;72.77;94457.69;4993393;28;20428;-78
2023/03/10 06:50:51;;;;;;;0.73;0.30;;;;;;;9.42;72.59;94457.44;4975784;28;20075;-78
2023/03/10 06:53:20;;;;;;;1.30;0.30;;;;;;;9.44;72.41;94450.97;4980018;28;20048;-79
2023/03/10 06:55:57;;;;;;;0.32;0.25;;;;;;;9.44;72.80;94440.56;4998082;28;20056;-80
2023/03/10 06:58:26;;;;;;;0.40;0.20;;;;;;;9.45;72.51;94444.78;4998200;28;20089;-77
2023/03/10 07:00:54;;;;;;;4.07;2.15;;;;;;;9.46;72.79;94442.94;4998875;28;20502;-78
2023/03/10 07:03:24;;;;;;;0.82;0.50;;;;;;;9.46;72.62;94427.34;4999344;28;20500;-77
2023/03/10 07:05:52;;;;;;;0.75;0.68;;;;;;;9.46;72.78;94420.31;4998795;28;20085;-80
2023/03/10 07:08:20;;;;;;;1.27;0.60;;;;;;;9.45;72.76;94410.94;4998476;28;20500;-79
2023/03/10 07:10:47;;;;;;;0.85;0.38;;;;;;;9.49;72.78;94398.28;4999224;28;20054;-77
2023/03/10 07:13:18;;;;;;;0.98;0.38;;;;;;;9.52;72.66;94407.44;4998979;28;20065;-79
2023/03/10 07:15:48;;;;;;;0.73;0.28;;;;;;;9.53;72.34;94401.19;4998985;28;20141;-79
2023/03/10 07:18:16;;;;;;;1.13;0.70;;;;;;;9.51;72.19;94406.66;4998408;28;20082;-78
2023/03/10 07:20:44;;;;;;;2.28;0.43;;;;;;;9.54;72.32;94419.19;4998775;28;20056;-82
2023/03/10 07:23:13;;;;;;;0.50;0.30;;;;;;;9.56;72.78;94419.75;4998309;28;20085;-78
2023/03/10 07:25:41;;;;;;;1.10;0.85;;;;;;;9.64;73.13;94416.81;4998875;28;20052;-79
2023/03/10 07:28:09;;;;;;;1.63;0.50;;;;;;;9.73;72.12;94409.44;4999063;28;20058;-77
2023/03/10 07:30:37;;;;;;;0.80;0.50;;;;;;;9.79;72.81;94408.50;4999735;28;20541;-78
2023/03/10 07:33:06;;;;;;;1.20;0.95;;;;;;;9.85;72.86;94415.38;5000414;28;20086;-79
2023/03/10 07:35:33;;;;;;;0.45;0.40;;;;;;;9.92;72.82;94417.06;5000235;28;20489;-77
2023/03/10 07:38:04;;;;;;;1.55;0.55;;;;;;;9.93;72.07;94419.44;4999711;28;20054;-78
2023/03/10 07:40:31;;;;;;;0.30;0.30;;;;;;;9.96;71.74;94426.00;4999530;28;20056;-78
2023/03/10 07:42:59;;;;;;;0.88;0.43;;;;;;;9.98;71.76;94416.94;4998984;28;20141;-80
2023/03/10 07:45:29;;;;;;;3.33;0.28;;;;;;;9.99;71.90;94428.97;4997814;28;20046;-79
2023/03/10 07:47:57;;;;;;;1.10;0.30;;;;;;;10.02;71.27;94417.28;4997773;28;20050;-78
2023/03/10 07:50:26;;;;;;;0.38;0.30;;;;;;;10.05;71.34;94416.81;4998113;28;20054;-78
2023/03/10 07:52:54;;;;;;;1.45;0.50;;;;;;;10.13;71.33;94424.25;4998300;28;20137;-77
2023/03/10 07:55:22;;;;;;;0.20;0.20;;;;;;;10.34;71.71;94415.00;4998220;28;20093;-77
2023/03/10 07:57:49;;;;;;;0.45;0.28;;;;;;;10.62;70.91;94419.41;4995988;28;20425;-77
2023/03/10 08:00:18;;;;;;;0.82;0.28;;;;;;;10.85;69.98;94417.72;4998220;28;20507;-77
2023/03/10 08:02:45;;;;;;;0.63;0.20;;;;;;;11.06;69.56;94424.84;4998614;28;20054;-77
2023/03/10 08:05:13;;;;;;;0.30;0.20;;;;;;;11.27;69.26;94422.50;5000842;28;20085;-77
2023/03/10 08:07:43;;;;;;;0.52;0.45;;;;;;;11.42;68.32;94425.34;5001901;28;20080;-79
2023/03/10 08:10:12;;;;;;;2.25;0.30;;;;;;;11.51;68.99;94429.13;5003316;28;20137;-79
2023/03/10 08:12:39;;;;;;;0.95;0.40;;;;;;;11.54;69.06;94420.81;5003764;28;20055;-79
2023/03/10 08:15:09;;;;;;;0.68;0.10;;;;;;;11.54;68.63;94423.44;5004018;28;20074;-78
2023/03/10 08:17:37;;;;;;;0.20;0.20;;;;;;;11.50;67.89;94426.72;5004153;28;20066;-81
2023/03/10 08:20:06;;;;;;;2.80;0.32;;;;;;;11.49;68.13;94431.16;5003115;28;20452;-79
2023/03/10 08:22:34;;;;;;;0.50;0.20;;;;;;;11.46;67.70;94438.72;5003222;28;20142;-79
2023/03/10 08:25:03;;;;;;;0.90;0.20;;;;;;;11.44;67.49;94441.56;5002929;28;20133;-79
2023/03/10 08:27:31;;;;;;;2.67;0.80;;;;;;;11.41;65.63;94436.78;5002461;28;20082;-79
2023/03/10 08:29:58;;;;;;;3.25;0.35;;;;;;;11.40;65.75;94434.44;5002325;28;20250;-79
2023/03/10 08:32:26;;;;;;;0.32;0.10;;;;;;;11.37;65.12;94435.72;5002532;28;20050;-80
2023/03/10 08:34:53;;;;;;;0.85;0.20;;;;;;;11.39;64.79;94430.25;5002168;28;20054;-79
2023/03/10 08:37:21;;;;;;;0.40;0.20;;;;;;;11.41;64.40;94438.63;5001328;28;20472;-78
2023/03/10 08:39:52;;;;;;;2.55;0.57;;;;;;;11.43;65.09;94426.91;5001813;28;20061;-79
2023/03/10 08:42:21;;;;;;;0.68;0.20;;;;;;;11.45;64.80;94424.06;5001423;28;20074;-80
2023/03/10 08:44:48;;;;;;;0.20;0.10;;;;;;;11.47;64.62;94428.00;5001751;28;20055;-77
2023/03/10 08:47:16;;;;;;;5.40;1.10;;;;;;;11.48;64.33;94413.94;5001361;28;20086;-77
2023/03/10 08:49:43;;;;;;;2.70;0.52;;;;;;;11.50;64.71;94417.09;4999994;28;20050;-78
2023/03/10 08:52:15;;;;;;;0.47;0.30;;;;;;;11.54;64.82;94418.22;5000525;28;20365;-77
2023/03/10 08:54:42;;;;;;;2.35;0.38;;;;;;;11.56;64.20;94423.16;4999988;28;20539;-80
2023/03/10 08:57:10;;;;;;;0.63;0.20;;;;;;;11.53;65.07;94408.00;5001195;28;20129;-78
2023/03/10 08:59:39;;;;;;;0.82;0.30;;;;;;;11.52;65.25;94412.44;4999280;28;20457;-78
2023/03/10 09:02:10;;;;;;;0.60;0.35;;;;;;;11.50;65.61;94411.88;5000154;28;20057;-79
2023/03/10 09:04:37;;;;;;;0.98;0.35;;;;;;;11.46;64.74;94408.16;4999471;28;20046;-77
2023/03/10 09:07:05;;;;;;;1.38;0.25;;;;;;;11.41;64.31;94397.63;5002886;28;20054;-80
2023/03/10 09:09:33;;;;;;;3.63;0.50;;;;;;;11.36;65.10;94405.41;5007437;28;20050;-79
2023/03/10 09:12:00;;;;;;;1.20;0.25;;;;;;;11.30;64.62;94406.38;5006374;28;20523;-81
2023/03/10 09:14:28;;;;;;;1.33;0.15;;;;;;;11.28;64.37;94395.38;5003064;28;20049;-79
2023/03/10 09:16:57;;;;;;;1.70;0.10;;;;;;;11.23;64.01;94411.75;5001393;28;20472;-78
2023/03/10 09:19:24;;;;;;;1.48;0.20;;;;;;;11.18;64.49;94409.06;5000636;28;20054;-78
2023/03/10 09:21:52;;;;;;;0.60;0.10;;;;;;;11.17;64.44;94419.75;5001488;28;20051;-78
2023/03/10 09:24:20;;;;;;;0.35;0.32;;;;;;;11.12;63.85;94436.91;4999571;28;20141;-77
2023/03/10 09:26:48;;;;;;;1.02;0.15;;;;;;;11.09;64.15;94440.00;5001443;28;20073;-79
2023/03/10 09:29:16;;;;;;;0.32;0.30;;;;;;;11.09;64.93;94442.59;4999622;28;20054;-78
2023/03/10 09:31:45;;;;;;;1.70;0.25;;;;;;;11.06;64.77;94445.69;4999333;28;20174;-77
2023/03/10 09:34:15;;;;;;;0.65;0.20;;;;;;;11.04;65.53;94455.59;4999243;28;20047;-79
2023/03/10 09:36:42;;;;;;;0.93;0.40;;;;;;;11.02;65.53;94486.34;4999525;28;20137;-78
2023/03/10 09:39:10;;;;;;;1.10;0.20;;;;;;;10.90;65.26;94475.16;4998142;28;20056;-79
2023/03/10 09:42:01;;;;;;;1.42;0.15;;;;;;;10.74;67.05;94486.38;4998175;28;20052;-77
2023/03/10 09:44:38;;;;;;;0.65;0.65;;;;;;;10.50;66.67;94508.09;4998053;28;20053;-79
2023/03/10 09:47:22;;;;;;;1.63;1.10;;;;;;;10.38;68.67;94503.94;4998257;28;20141;-79
2023/03/10 09:50:02;;;;;;;3.33;2.45;;;;;;;10.35;68.85;94504.44;4996438;28;20058;-78
2023/03/10 09:52:39;;;;;;;1.92;1.70;;;;;;;10.36;70.02;94524.25;4997412;28;20482;-78
2023/03/10 09:55:18;;;;;;;2.58;1.80;;;;;;;10.35;68.47;94520.06;4997559;28;20515;-78
2023/03/10 09:57:47;;;;;;;4.68;2.20;;;;;;;10.33;69.39;94516.91;4996179;28;20457;-79
2023/03/10 10:00:21;;;;;;;3.10;1.77;;;;;;;10.31;70.46;94517.91;4996695;28;20054;-80
2023/03/10 10:02:57;;;;;;;3.00;1.15;;;;;;;10.45;69.82;94520.25;4997466;28;20085;-77
2023/03/10 10:05:31;;;;;;;0.80;0.60;;;;;;;10.69;69.33;94511.34;4996754;28;20088;-78
2023/03/10 10:08:02;;;;;;;0.70;0.40;;;;;;;10.89;69.80;94510.91;4997664;28;20042;-78
2023/03/10 10:10:35;;;;;;;1.13;0.63;;;;;;;10.99;68.61;94501.66;4997303;28;20050;-77
2023/03/10 10:13:12;;;;;;;1.48;0.47;;;;;;;11.16;69.15;94504.28;4997477;28;20486;-77
2023/03/10 10:15:43;;;;;;;0.70;0.68;;;;;;;11.39;69.26;94503.31;4997441;28;20060;-78
2023/03/10 10:18:13;;;;;;;1.98;0.75;;;;;;;11.55;68.08;94500.72;4996697;28;20101;-78
2023/03/10 10:20:57;;;;;;;1.70;0.40;;;;;;;11.66;67.44;94498.25;4999839;28;20094;-78
2023/03/10 10:23:31;;;;;;;2.40;0.38;;;;;;;11.70;67.27;94497.53;5000535;28;20054;-78
2023/03/10 10:26:08;;;;;;;2.47;0.77;;;;;;;11.73;66.60;94486.59;5000363;28;20046;-77
2023/03/10 10:28:41;;;;;;;1.98;0.70;;;;;;;11.79;65.67;94484.84;5000308;28;20096;-78
2023/03/10 10:31:11;;;;;;;1.00;0.50;;;;;;;11.86;66.48;94474.22;5000654;28;20480;-78
2023/03/10 10:33:57;;;;;;;0.63;0.50;;;;;;;11.89;66.74;94471.94;5001152;28;20522;-77
2023/03/10 10:36:29;;;;;;;3.75;0.70;;;;;;;11.93;66.00;94457.38;5000901;28;20129;-77
2023/03/10 10:38:57;;;;;;;1.35;0.70;;;;;;;11.98;66.28;94448.78;4999571;28;20140;-77
2023/03/10 10:41:28;;;;;;;2.80;0.95;;;;;;;11.99;65.06;94457.44;4999953;28;20046;-77
2023/03/10 10:43:58;;;;;;;2.05;0.80;;;;;;;11.95;65.20;94463.13;4999992;28;20145;-78
2023/03/10 10:46:28;;;;;;;1.70;0.60;;;;;;;11.93;64.52;94467.81;4999575;28;20050;-78
2023/03/10 10:49:17;;;;;;;1.65;0.35;;;;;;;11.89;62.90;94461.50;4998638;28;20532;-78
2023/03/10 10:51:56;;;;;;;2.97;0.30;;;;;;;11.84;62.84;94474.47;5000199;28;20497;-79
2023/03/10 10:54:27;;;;;;;0.82;0.22;;;;;;;11.76;62.51;94487.94;4999824;28;20051;-78
2023/03/10 10:56:57;;;;;;;1.15;0.35;;;;;;;11.70;62.54;94489.69;4999873;28;20473;-77
2023/03/10 10:59:28;;;;;;;0.85;0.20;;;;;;;11.62;63.67;94497.16;4998776;28;20122;-78
2023/03/10 11:01:57;;;;;;;1.50;0.52;;;;;;;11.56;64.61;94498.88;4999454;28;20069;-78
2023/03/10 11:04:28;;;;;;;0.98;0.20;;;;;;;11.51;64.69;94491.78;4999182;28;20054;-77
2023/03/10 11:07:11;;;;;;;2.65;0.52;;;;;;;11.48;65.35;94481.81;4998878;28;20055;-78
2023/03/10 11:09:38;;;;;;;1.67;0.38;;;;;;;11.55;65.16;94472.00;4998738;28;20125;-83
2023/03/10 11:12:12;;;;;;;1.52;0.40;;;;;;;11.74;64.23;94469.91;5003675;28;20499;-81
2023/03/10 11:14:52;;;;;;;0.50;0.20;;;;;;;11.89;64.61;94464.09;5006577;28;20102;-81
2023/03/10 11:17:24;;;;;;;0.73;0.40;;;;;;;11.89;63.58;94461.50;5005345;28;20050;-79
2023/03/10 11:19:56;;;;;;;;;;;;;;;11.89;64.26;94461.50;5004230;28;20060;-80
2023/03/10 11:22:36;;;;;;;1.33;0.50;;;;;;;11.83;64.34;94446.78;5004467;28;19960;-81
2023/03/10 11:25:15;;;;;;;2.70;0.60;;;;;;;11.77;65.15;94442.50;5003457;28;20500;-79
2023/03/10 11:27:50;;;;;;;0.88;0.40;;;;;;;11.70;65.64;94440.09;5006443;28;20043;-77
2023/03/10 11:30:23;;;;;;;2.63;0.77;;;;;;;11.66;65.73;94443.41;5003477;28;20052;-79
2023/03/10 11:33:10;;;;;;;0.80;0.60;;;;;;;11.67;66.52;94447.59;5002154;28;20050;-78
2023/03/10 11:35:44;;;;;;;0.20;0.10;;;;;;;11.65;65.34;94440.00;5002863;28;20061;-78
2023/03/10 11:38:29;;;;;;;1.13;0.20;;;;;;;11.61;65.64;94453.78;5048713;22;20476;-79
2023/03/10 11:41:01;;;;;;;0.32;0.20;;;;;;;11.59;65.66;94448.00;4976957;28;20071;-79
2023/03/10 11:43:37;;;;;;;2.38;0.40;;;;;;;11.57;65.28;94452.66;4976268;28;20592;-80
2023/03/10 11:57:34;;;;;;;1.98;0.63;;;;;;;11.63;63.78;94459.56;4956615;29;20070;-80
2023/03/10 12:12:25;;;;;;;0.40;0.30;;;;;;;11.74;63.61;94443.78;4897689;29;20108;-79
2023/03/10 12:26:01;;;;;;;0.50;0.20;;;;;;;11.61;61.47;94457.19;4953750;29;20108;-79
2023/03/10 12:40:51;;;;;;;2.72;0.30;;;;;;;11.49;63.74;94449.44;5054487;27;1260006;-80